Time;durP1;ratioP1;P1;durP2;ratioP2;P2;SDS_P1;SDS_P2;PMS_P1;PMS_P2;Temp;Humidity;BMP_temperature;BMP_pressure;BME280_temperature;BME280_humidity;BME280_pressure;Samples;Min_cycle;Max_cycle;Signal;HPM_P1;HPM_P2
2021/06/25 00:00:00;;;;;;;19.00;15.70;;;18.80;99.90;;;;;;5055509;28;20881;-81
2021/06/25 00:02:27;;;;;;;23.00;15.33;;;18.80;99.90;;;;;;5080444;28;20576;-81
2021/06/25 00:04:54;;;;;;;20.73;15.70;;;18.80;99.90;;;;;;5078228;28;20465;-81
2021/06/25 00:07:21;;;;;;;19.50;16.17;;;18.70;99.90;;;;;;5075907;28;20474;-80
2021/06/25 00:09:50;;;;;;;24.37;16.63;;;18.70;99.90;;;;;;5075854;28;20477;-81
2021/06/25 00:12:17;;;;;;;20.47;16.10;;;18.70;99.90;;;;;;5075134;28;20465;-81
2021/06/25 00:14:44;;;;;;;23.50;18.10;;;18.70;99.90;;;;;;5079930;28;20501;-81
2021/06/25 00:17:11;;;;;;;19.23;16.07;;;18.70;99.90;;;;;;5076189;28;21062;-81
2021/06/25 00:19:39;;;;;;;21.17;16.27;;;18.60;99.90;;;;;;5080939;28;20482;-81
2021/06/25 00:22:06;;;;;;;21.80;16.57;;;18.60;99.90;;;;;;5075005;28;20570;-81
2021/06/25 00:24:33;;;;;;;18.37;16.40;;;18.60;99.90;;;;;;5078276;28;20506;-80
2021/06/25 00:27:02;;;;;;;22.00;16.87;;;18.60;99.90;;;;;;5081660;28;20547;-81
2021/06/25 00:29:29;;;;;;;18.87;16.47;;;18.60;99.90;;;;;;5081549;28;20464;-81
2021/06/25 00:31:56;;;;;;;25.23;18.60;;;18.60;99.90;;;;;;5076439;28;20527;-81
2021/06/25 00:34:23;;;;;;;20.30;16.77;;;18.50;99.90;;;;;;5077632;28;20461;-81
2021/06/25 00:36:50;;;;;;;20.67;17.30;;;18.50;99.90;;;;;;5070068;28;20831;-81
2021/06/25 00:39:17;;;;;;;20.70;15.27;;;18.50;99.90;;;;;;5091938;28;20461;-81
2021/06/25 00:41:44;;;;;;;20.87;17.30;;;18.50;99.90;;;;;;5084802;28;21104;-81
2021/06/25 00:44:17;;;;;;;19.23;17.23;;;18.40;99.90;;;;;;5077123;28;20465;-81
2021/06/25 00:46:44;;;;;;;20.47;17.63;;;18.40;99.90;;;;;;5076966;28;20466;-81
2021/06/25 00:49:11;;;;;;;20.30;17.67;;;18.40;99.90;;;;;;5081796;28;20556;-81
2021/06/25 00:51:39;;;;;;;19.33;17.37;;;18.40;99.90;;;;;;5076763;28;20475;-80
2021/06/25 00:54:08;;;;;;;19.30;17.30;;;18.40;99.90;;;;;;5077751;28;20893;-81
2021/06/25 00:56:35;;;;;;;19.97;17.77;;;18.40;99.90;;;;;;5077289;28;20993;-81
2021/06/25 00:59:02;;;;;;;24.70;16.57;;;18.40;99.90;;;;;;5079669;28;20467;-81
2021/06/25 01:01:30;;;;;;;20.40;17.07;;;18.40;99.90;;;;;;5065566;28;20488;-81
2021/06/25 01:03:58;;;;;;;22.13;16.97;;;18.40;99.90;;;;;;5061230;28;20536;-80
2021/06/25 01:06:28;;;;;;;19.80;15.97;;;18.30;99.90;;;;;;5058144;28;20540;-81
2021/06/25 01:08:55;;;;;;;25.67;18.17;;;18.30;99.90;;;;;;5058162;28;20948;-81
2021/06/25 01:11:22;;;;;;;19.00;16.87;;;18.30;99.90;;;;;;5056662;28;21032;-81
2021/06/25 01:13:49;;;;;;;23.57;18.53;;;18.30;99.90;;;;;;5060080;28;20466;-81
2021/06/25 01:16:16;;;;;;;22.00;17.83;;;18.20;99.90;;;;;;5060560;28;20851;-81
2021/06/25 01:18:45;;;;;;;18.83;16.63;;;18.20;99.90;;;;;;5061984;28;20508;-80
2021/06/25 01:21:13;;;;;;;19.20;16.57;;;18.10;99.90;;;;;;5053562;28;20495;-80
2021/06/25 01:23:42;;;;;;;24.80;18.10;;;18.10;99.90;;;;;;5059549;28;20459;-81
2021/06/25 01:26:10;;;;;;;22.50;17.00;;;18.10;99.90;;;;;;5051592;28;20462;-81
2021/06/25 01:28:37;;;;;;;20.10;17.47;;;18.00;99.90;;;;;;5061425;28;20480;-81
2021/06/25 01:31:06;;;;;;;22.63;18.23;;;18.00;99.90;;;;;;5063187;28;20462;-81
2021/06/25 01:33:34;;;;;;;22.53;16.80;;;17.90;99.90;;;;;;5065703;28;20468;-80
2021/06/25 01:36:02;;;;;;;18.70;15.90;;;17.90;99.90;;;;;;5060229;28;20578;-81
2021/06/25 01:38:30;;;;;;;17.73;15.70;;;17.80;99.90;;;;;;5061822;28;20589;-82
2021/06/25 01:40:59;;;;;;;20.40;17.63;;;17.80;99.90;;;;;;5056540;28;20874;-81
2021/06/25 01:43:27;;;;;;;21.80;16.60;;;17.80;99.90;;;;;;5057431;28;20472;-80
2021/06/25 01:45:56;;;;;;;17.97;15.63;;;17.70;99.90;;;;;;5063063;28;20465;-80
2021/06/25 01:48:23;;;;;;;24.07;17.87;;;17.70;99.90;;;;;;5064478;28;20463;-80
2021/06/25 01:50:50;;;;;;;21.67;17.27;;;17.60;99.90;;;;;;5059518;28;20559;-81
2021/06/25 01:53:19;;;;;;;17.07;15.37;;;17.60;99.90;;;;;;5059259;28;20458;-80
2021/06/25 01:55:50;;;;;;;17.03;15.33;;;17.60;99.90;;;;;;5060650;28;20539;-81
2021/06/25 01:58:19;;;;;;;18.57;16.60;;;17.50;99.90;;;;;;5056347;28;20494;-81
2021/06/25 02:00:52;;;;;;;20.77;15.97;;;17.50;99.90;;;;;;5070990;28;20478;-81
2021/06/25 02:03:18;;;;;;;19.20;14.63;;;17.40;99.90;;;;;;5081271;28;20819;-81
2021/06/25 02:05:45;;;;;;;17.20;14.27;;;17.40;99.90;;;;;;5078445;28;20876;-81
2021/06/25 02:08:12;;;;;;;18.83;15.60;;;17.40;99.90;;;;;;5074105;28;21161;-81
2021/06/25 02:10:39;;;;;;;16.37;14.87;;;17.40;99.90;;;;;;5077637;28;20459;-81
2021/06/25 02:13:08;;;;;;;18.73;16.07;;;17.30;99.90;;;;;;5081002;28;20552;-81
2021/06/25 02:15:36;;;;;;;18.27;16.30;;;17.30;99.90;;;;;;5077689;28;20469;-80
2021/06/25 02:18:03;;;;;;;20.17;15.00;;;17.30;99.90;;;;;;5081380;28;20480;-81
2021/06/25 02:20:30;;;;;;;19.40;15.43;;;;;;;;;;5081124;28;21086;-80
2021/06/25 02:22:57;;;;;;;20.53;15.80;;;17.20;99.90;;;;;;5079075;28;20877;-81
2021/06/25 02:25:24;;;;;;;17.37;15.57;;;17.20;99.90;;;;;;5076905;28;20465;-81
2021/06/25 02:27:51;;;;;;;17.50;15.47;;;17.10;99.90;;;;;;5080417;28;20554;-81
2021/06/25 02:30:20;;;;;;;20.63;18.47;;;17.10;99.90;;;;;;5079064;28;20462;-81
2021/06/25 02:32:47;;;;;;;22.20;18.30;;;17.10;99.90;;;;;;5078386;28;20474;-81
2021/06/25 02:35:15;;;;;;;20.00;16.40;;;17.10;99.90;;;;;;5077465;28;20493;-81
2021/06/25 02:37:43;;;;;;;17.90;16.00;;;17.10;99.90;;;;;;5081852;28;20513;-81
2021/06/25 02:40:13;;;;;;;19.53;16.70;;;17.10;99.90;;;;;;5086047;28;20905;-81
2021/06/25 02:42:40;;;;;;;21.30;17.77;;;17.00;99.90;;;;;;5070489;28;20457;-81
2021/06/25 02:45:09;;;;;;;21.33;17.33;;;17.00;99.90;;;;;;5078285;28;20472;-82
2021/06/25 02:47:38;;;;;;;21.90;17.60;;;17.00;99.90;;;;;;5084488;28;20454;-81
2021/06/25 02:50:08;;;;;;;23.03;17.40;;;17.00;99.90;;;;;;5078512;28;20570;-81
2021/06/25 02:52:37;;;;;;;19.70;17.10;;;16.90;99.90;;;;;;5078936;28;20924;-80
2021/06/25 02:55:05;;;;;;;20.17;17.40;;;16.90;99.90;;;;;;5080319;28;20848;-81
2021/06/25 02:57:32;;;;;;;20.60;17.43;;;16.90;99.90;;;;;;5082902;28;20482;-81
2021/06/25 02:59:59;;;;;;;18.67;16.57;;;16.90;99.90;;;;;;5079719;28;20465;-80
2021/06/25 03:02:26;;;;;;;20.83;17.80;;;16.90;99.90;;;;;;5077981;28;20571;-81
2021/06/25 03:04:54;;;;;;;20.67;16.27;;;16.80;99.90;;;;;;5080792;28;20549;-81
2021/06/25 03:07:21;;;;;;;17.73;15.40;;;16.80;99.90;;;;;;5074375;28;20811;-81
2021/06/25 03:09:48;;;;;;;19.47;17.00;;;16.80;99.90;;;;;;5081063;28;20492;-80
2021/06/25 03:12:16;;;;;;;19.60;17.60;;;16.80;99.90;;;;;;5080715;28;20830;-80
2021/06/25 03:14:43;;;;;;;20.33;16.80;;;16.70;99.90;;;;;;5081537;28;20578;-81
2021/06/25 03:17:10;;;;;;;19.10;17.10;;;16.70;99.90;;;;;;5076082;28;20994;-81
2021/06/25 03:19:37;;;;;;;21.33;16.57;;;16.70;99.90;;;;;;5080759;28;20464;-81
2021/06/25 03:22:06;;;;;;;20.40;18.30;;;16.70;99.90;;;;;;5075985;28;20560;-80
2021/06/25 03:24:34;;;;;;;22.23;17.33;;;16.70;99.90;;;;;;5081802;28;20935;-81
2021/06/25 03:27:01;;;;;;;19.10;16.70;;;16.70;99.90;;;;;;5083773;28;20507;-81
2021/06/25 03:29:28;;;;;;;19.00;17.00;;;16.70;99.90;;;;;;5081942;28;20466;-81
2021/06/25 03:31:55;;;;;;;19.43;17.40;;;16.80;99.90;;;;;;5075180;28;20506;-81
2021/06/25 03:34:22;;;;;;;18.50;16.37;;;16.70;99.90;;;;;;5079858;28;20498;-81
2021/06/25 03:36:49;;;;;;;18.93;17.03;;;16.70;99.90;;;;;;5080543;28;20464;-81
2021/06/25 03:39:18;;;;;;;24.50;17.17;;;16.80;99.90;;;;;;5088201;28;20498;-81
2021/06/25 03:41:44;;;;;;;19.77;17.53;;;16.80;99.90;;;;;;5086909;28;20545;-81
2021/06/25 03:44:11;;;;;;;19.17;16.97;;;16.80;99.90;;;;;;5077076;28;20462;-81
2021/06/25 03:46:38;;;;;;;21.80;16.13;;;16.70;99.90;;;;;;5075311;28;20574;-81
2021/06/25 03:49:06;;;;;;;19.97;16.80;;;16.70;99.90;;;;;;5075938;28;20574;-82
2021/06/25 03:51:33;;;;;;;22.93;16.63;;;16.70;99.90;;;;;;5078362;28;20995;-81
2021/06/25 03:54:02;;;;;;;19.50;17.13;;;16.70;99.90;;;;;;5082486;28;20454;-81
2021/06/25 03:56:30;;;;;;;18.77;16.57;;;16.70;99.90;;;;;;5076354;28;20468;-81
2021/06/25 03:58:57;;;;;;;25.83;18.53;;;16.70;99.90;;;;;;5075645;28;20494;-81
2021/06/25 04:01:25;;;;;;;22.40;19.10;;;16.70;99.90;;;;;;5078174;28;20493;-81
2021/06/25 04:03:52;;;;;;;24.67;20.10;;;16.70;99.90;;;;;;5075558;28;20964;-82
2021/06/25 04:06:19;;;;;;;23.60;19.27;;;16.70;99.90;;;;;;5074344;28;20541;-81
2021/06/25 04:08:48;;;;;;;30.40;20.03;;;16.70;99.90;;;;;;5077760;28;20466;-81
2021/06/25 04:11:17;;;;;;;21.63;19.00;;;16.70;99.90;;;;;;5077179;28;20494;-81
2021/06/25 04:13:47;;;;;;;22.87;17.23;;;16.70;99.90;;;;;;5072796;28;20470;-81
2021/06/25 04:16:14;;;;;;;23.70;17.70;;;16.70;99.90;;;;;;5077202;28;20458;-81
2021/06/25 04:18:41;;;;;;;27.10;19.17;;;16.80;99.90;;;;;;5081629;28;20485;-81
2021/06/25 04:21:08;;;;;;;21.10;18.00;;;16.70;99.90;;;;;;5082095;28;21050;-81
2021/06/25 04:23:36;;;;;;;21.07;18.70;;;16.70;99.90;;;;;;5080944;28;20553;-81
2021/06/25 04:26:03;;;;;;;22.67;18.57;;;16.70;99.90;;;;;;5074185;28;20572;-81
2021/06/25 04:28:31;;;;;;;20.40;18.10;;;16.70;99.90;;;;;;5079527;28;20545;-81
2021/06/25 04:31:00;;;;;;;23.10;19.00;;;16.70;99.90;;;;;;5077047;28;20460;-81
2021/06/25 04:33:28;;;;;;;26.90;19.90;;;16.70;99.90;;;;;;5075633;28;20516;-81
2021/06/25 04:35:55;;;;;;;24.73;19.23;;;16.70;99.90;;;;;;5078764;28;20477;-82
2021/06/25 04:38:21;;;;;;;23.33;18.70;;;16.70;99.90;;;;;;5081344;28;20478;-81
2021/06/25 04:40:49;;;;;;;21.60;18.10;;;16.60;99.90;;;;;;5080286;28;20455;-81
2021/06/25 04:43:17;;;;;;;25.47;20.07;;;16.60;99.90;;;;;;5074859;28;20598;-81
2021/06/25 04:45:45;;;;;;;23.97;19.40;;;16.60;99.90;;;;;;5079055;28;20460;-81
2021/06/25 04:48:15;;;;;;;27.03;21.67;;;16.60;99.90;;;;;;5080278;28;20831;-82
2021/06/25 04:50:44;;;;;;;28.97;21.77;;;16.70;99.90;;;;;;5081158;28;20827;-81
2021/06/25 04:53:11;;;;;;;33.17;24.30;;;16.70;99.90;;;;;;5078654;28;20542;-81
2021/06/25 04:55:42;;;;;;;31.03;24.23;;;16.70;99.90;;;;;;5073293;28;20496;-81
2021/06/25 04:58:11;;;;;;;36.07;25.77;;;16.80;99.90;;;;;;5071037;28;20499;-81
2021/06/25 05:00:39;;;;;;;32.40;25.07;;;16.90;99.90;;;;;;5084204;28;20490;-81
2021/06/25 05:03:06;;;;;;;34.47;26.63;;;16.90;99.90;;;;;;5089498;28;20459;-81
2021/06/25 05:05:36;;;;;;;35.97;27.10;;;17.00;99.90;;;;;;5083692;28;20549;-84
2021/06/25 05:08:03;;;;;;;33.17;25.97;;;17.10;99.90;;;;;;5081467;28;20470;-82
2021/06/25 05:10:31;;;;;;;40.33;27.27;;;17.10;99.90;;;;;;5077767;28;20470;-82
2021/06/25 05:12:58;;;;;;;33.47;25.77;;;17.20;99.90;;;;;;5076189;28;20548;-82
2021/06/25 05:15:25;;;;;;;37.33;28.17;;;17.20;99.90;;;;;;5085763;28;20455;-82
2021/06/25 05:17:52;;;;;;;34.80;26.60;;;17.30;99.90;;;;;;5078871;28;20486;-82
2021/06/25 05:20:21;;;;;;;34.00;26.77;;;17.30;99.90;;;;;;5085503;28;20491;-82
2021/06/25 05:22:49;;;;;;;32.10;26.80;;;17.40;99.90;;;;;;5083201;28;20505;-82
2021/06/25 05:25:16;;;;;;;36.10;28.20;;;17.50;99.90;;;;;;5083751;28;21035;-81
2021/06/25 05:27:44;;;;;;;39.83;28.10;;;17.50;99.90;;;;;;5080474;28;20460;-81
2021/06/25 05:30:12;;;;;;;42.07;28.00;;;17.60;99.90;;;;;;5076644;28;20469;-82
2021/06/25 05:32:39;;;;;;;40.40;29.17;;;17.70;99.90;;;;;;5085054;28;20544;-81
2021/06/25 05:35:07;;;;;;;36.10;28.57;;;17.70;99.90;;;;;;5085221;28;20469;-81
2021/06/25 05:37:34;;;;;;;37.50;28.70;;;17.80;99.90;;;;;;5072951;28;20465;-82
2021/06/25 05:40:03;;;;;;;37.13;30.10;;;17.80;99.90;;;;;;5078118;28;20865;-82
2021/06/25 05:42:30;;;;;;;38.23;30.60;;;17.90;99.90;;;;;;5078399;28;20474;-81
2021/06/25 05:44:57;;;;;;;38.13;30.37;;;17.90;99.90;;;;;;5079465;28;20473;-82
2021/06/25 05:47:24;;;;;;;41.43;30.43;;;18.00;99.90;;;;;;5074937;28;20465;-81
2021/06/25 05:49:51;;;;;;;37.03;28.73;;;18.00;99.90;;;;;;5080303;28;20462;-82
2021/06/25 05:52:18;;;;;;;38.00;29.17;;;18.10;99.90;;;;;;5067538;28;20838;-81
2021/06/25 05:54:45;;;;;;;39.80;27.57;;;18.10;99.90;;;;;;5069590;28;20474;-82
2021/06/25 05:57:13;;;;;;;37.13;26.03;;;18.20;99.90;;;;;;5074277;28;20508;-71
2021/06/25 05:59:40;;;;;;;33.90;26.43;;;18.30;99.90;;;;;;5074875;28;21978;-71
2021/06/25 06:02:08;;;;;;;33.83;25.53;;;18.40;99.90;;;;;;5080445;28;20895;-71
2021/06/25 06:04:34;;;;;;;28.90;24.83;;;18.40;99.90;;;;;;5079074;28;21323;-71
2021/06/25 06:07:03;;;;;;;34.77;25.40;;;18.50;99.90;;;;;;5087680;28;20545;-71
2021/06/25 06:09:30;;;;;;;36.07;26.90;;;18.50;99.90;;;;;;5076910;28;20555;-71
2021/06/25 06:11:57;;;;;;;31.60;23.73;;;18.60;99.90;;;;;;5077950;28;20979;-71
2021/06/25 06:14:25;;;;;;;32.57;25.63;;;18.60;99.90;;;;;;5078299;28;20478;-71
2021/06/25 06:16:52;;;;;;;28.90;25.20;;;18.70;99.90;;;;;;5081718;28;20475;-71
2021/06/25 06:19:19;;;;;;;32.17;24.30;;;18.80;99.90;;;;;;5088285;28;20502;-71
2021/06/25 06:32:50;;;;;;;30.60;22.57;;;19.00;99.90;;;;;;5080962;28;20465;-71
2021/06/25 06:35:17;;;;;;;27.07;21.43;;;19.00;99.90;;;;;;5076004;28;20458;-71
2021/06/25 06:37:49;;;;;;;24.20;20.80;;;19.10;99.90;;;;;;5069462;28;20458;-71
2021/06/25 06:40:19;;;;;;;21.70;19.40;;;19.20;99.90;;;;;;5074791;28;20458;-71
2021/06/25 06:42:46;;;;;;;25.73;18.93;;;19.20;99.90;;;;;;5079274;28;20459;-71
2021/06/25 06:45:16;;;;;;;23.27;20.07;;;19.30;99.90;;;;;;5075432;28;20454;-71
2021/06/25 06:47:44;;;;;;;26.80;21.20;;;19.30;99.90;;;;;;5073318;28;20843;-71
2021/06/25 06:50:11;;;;;;;31.30;21.93;;;19.40;99.90;;;;;;5068238;28;20980;-71
2021/06/25 06:52:42;;;;;;;27.80;20.00;;;19.50;99.90;;;;;;5069502;28;20469;-71
2021/06/25 06:55:10;;;;;;;22.27;19.90;;;19.50;99.90;;;;;;5077218;28;21226;-71
2021/06/25 06:57:36;;;;;;;24.00;20.77;;;19.50;99.90;;;;;;5074496;28;20477;-71
2021/06/25 07:00:05;;;;;;;22.70;20.13;;;19.50;99.90;;;;;;5075632;28;20492;-71
2021/06/25 07:02:34;;;;;;;25.93;19.90;;;19.60;99.90;;;;;;5070624;28;20498;-71
2021/06/25 07:05:01;;;;;;;27.63;20.23;;;19.60;99.90;;;;;;5077904;28;20446;-71
2021/06/25 07:07:28;;;;;;;23.43;19.00;;;19.60;99.90;;;;;;5075269;28;20464;-71
2021/06/25 07:09:54;;;;;;;22.63;18.20;;;19.60;99.90;;;;;;5074528;28;20544;-71
2021/06/25 07:12:22;;;;;;;21.20;16.93;;;19.60;99.90;;;;;;5070560;28;20464;-71
2021/06/25 07:14:48;;;;;;;21.27;17.67;;;19.60;99.90;;;;;;5072978;28;20483;-71
2021/06/25 07:17:15;;;;;;;22.80;18.13;;;19.60;99.90;;;;;;5071990;28;20950;-71
2021/06/25 07:19:44;;;;;;;20.00;15.00;;;19.70;99.90;;;;;;5075349;28;20493;-71
2021/06/25 07:22:11;;;;;;;17.10;15.30;;;19.70;99.90;;;;;;5075458;28;20513;-71
2021/06/25 07:24:38;;;;;;;16.67;14.97;;;19.70;99.90;;;;;;5072455;28;20469;-71
2021/06/25 07:27:06;;;;;;;18.77;14.50;;;19.80;99.90;;;;;;5071802;28;20840;-71
2021/06/25 07:29:33;;;;;;;31.03;15.50;;;19.80;99.90;;;;;;5073822;28;20491;-71
2021/06/25 07:32:00;;;;;;;14.77;12.30;;;19.90;99.90;;;;;;5075090;28;20457;-71
2021/06/25 07:34:27;;;;;;;15.83;12.70;;;19.90;99.90;;;;;;5071733;28;20466;-71
2021/06/25 07:36:55;;;;;;;15.70;13.63;;;20.00;99.90;;;;;;5075368;28;20893;-71
2021/06/25 07:39:22;;;;;;;16.30;12.07;;;20.10;99.80;;;;;;5070176;28;20500;-82
2021/06/25 07:41:49;;;;;;;14.87;13.30;;;20.20;99.30;;;;;;5065712;28;20545;-83
2021/06/25 07:44:16;;;;;;;14.17;12.77;;;20.30;99.60;;;;;;5076012;28;20468;-82
2021/06/25 07:46:43;;;;;;;15.70;11.60;;;20.40;99.20;;;;;;5075879;28;20909;-82
2021/06/25 07:49:10;;;;;;;15.03;12.20;;;20.50;99.30;;;;;;5075954;28;21070;-82
2021/06/25 07:51:37;;;;;;;15.00;12.20;;;20.60;98.70;;;;;;5075771;28;20459;-82
2021/06/25 07:54:06;;;;;;;15.60;12.40;;;20.60;98.60;;;;;;5077925;28;20497;-82
2021/06/25 07:56:33;;;;;;;16.27;13.97;;;20.70;98.30;;;;;;5075646;28;20802;-83
2021/06/25 07:58:59;;;;;;;17.53;12.47;;;20.80;97.70;;;;;;5072629;28;20822;-82
2021/06/25 08:01:27;;;;;;;16.70;13.90;;;21.00;97.60;;;;;;5068736;28;20506;-82
2021/06/25 08:03:53;;;;;;;15.93;12.70;;;21.10;97.40;;;;;;5080752;28;20463;-82
2021/06/25 08:06:20;;;;;;;16.27;12.07;;;21.20;97.50;;;;;;5076136;28;20515;-82
2021/06/25 08:08:47;;;;;;;17.03;12.93;;;21.20;97.20;;;;;;5075077;28;20474;-82
2021/06/25 08:11:16;;;;;;;13.53;12.23;;;21.30;97.30;;;;;;5070378;28;20459;-82
2021/06/25 08:13:42;;;;;;;13.87;12.23;;;21.40;96.00;;;;;;5075865;28;20464;-82
2021/06/25 08:16:09;;;;;;;16.27;11.83;;;21.40;95.60;;;;;;5071153;28;20973;-82
2021/06/25 08:18:36;;;;;;;14.60;11.47;;;21.50;95.70;;;;;;5071178;28;20475;-82
2021/06/25 08:21:03;;;;;;;18.67;12.50;;;21.50;95.70;;;;;;5078643;28;20490;-82
2021/06/25 08:23:30;;;;;;;13.70;11.13;;;21.60;95.70;;;;;;5071587;28;21029;-84
2021/06/25 08:25:57;;;;;;;13.70;10.80;;;21.70;95.80;;;;;;5071471;28;20498;-81
2021/06/25 08:28:25;;;;;;;12.00;10.03;;;21.80;96.00;;;;;;5072696;28;20456;-82
2021/06/25 08:30:52;;;;;;;13.37;11.17;;;21.90;95.70;;;;;;5059907;28;20466;-83
2021/06/25 08:33:19;;;;;;;12.30;11.13;;;21.90;95.40;;;;;;5069954;28;20957;-82
2021/06/25 08:35:46;;;;;;;16.33;12.00;;;21.90;95.00;;;;;;5068212;28;20835;-81
2021/06/25 08:38:13;;;;;;;12.93;9.90;;;21.90;94.30;;;;;;5071632;28;20468;-82
2021/06/25 08:40:40;;;;;;;11.27;10.00;;;21.90;94.50;;;;;;5070070;28;20489;-82
2021/06/25 08:43:08;;;;;;;11.73;10.13;;;21.90;94.80;;;;;;5068070;28;20469;-82
2021/06/25 08:45:36;;;;;;;10.50;9.43;;;21.90;95.00;;;;;;5073212;28;20821;-81
2021/06/25 08:48:05;;;;;;;14.80;10.17;;;22.00;95.20;;;;;;5072925;28;20557;-81
2021/06/25 08:50:39;;;;;;;13.43;9.77;;;22.00;93.90;;;;;;5072083;28;20950;-82
2021/06/25 08:53:07;;;;;;;11.33;9.00;;;22.00;93.70;;;;;;5075175;28;20921;-82
2021/06/25 08:55:43;;;;;;;13.90;10.17;;;22.10;94.10;;;;;;5071503;28;20458;-82
2021/06/25 08:58:13;;;;;;;11.73;9.23;;;22.10;93.90;;;;;;5072427;28;20736;-82
2021/06/25 09:00:41;;;;;;;10.83;9.60;;;22.20;94.50;;;;;;5072957;28;20939;-81
2021/06/25 09:03:11;;;;;;;13.47;10.20;;;22.30;94.40;;;;;;5068319;28;20581;-82
2021/06/25 09:05:38;;;;;;;12.00;9.93;;;22.40;94.10;;;;;;5072872;28;21136;-81
2021/06/25 09:08:05;;;;;;;11.07;9.83;;;22.50;93.10;;;;;;5080999;28;20456;-82
2021/06/25 09:10:34;;;;;;;10.67;9.57;;;22.60;93.00;;;;;;5072753;28;20458;-82
2021/06/25 09:13:04;;;;;;;11.47;9.33;;;22.60;92.70;;;;;;5069960;28;20466;-82
2021/06/25 09:15:32;;;;;;;10.50;9.33;;;22.70;93.20;;;;;;5069778;28;20925;-82
2021/06/25 09:18:02;;;;;;;12.40;9.10;;;22.80;92.80;;;;;;5068781;28;20462;-82
2021/06/25 09:20:35;;;;;;;11.57;10.20;;;22.80;92.90;;;;;;5076791;28;20861;-82
2021/06/25 09:23:03;;;;;;;10.93;9.83;;;22.90;92.70;;;;;;5072450;28;20487;-82
2021/06/25 09:25:48;;;;;;;11.33;10.10;;;22.90;91.80;;;;;;5076746;28;20523;-82
2021/06/25 09:28:22;;;;;;;10.57;9.53;;;23.00;91.70;;;;;;5070103;28;20538;-82
2021/06/25 09:30:49;;;;;;;11.53;10.43;;;23.10;91.80;;;;;;5080082;28;20566;-82
2021/06/25 09:33:17;;;;;;;12.87;9.93;;;23.20;91.50;;;;;;5073003;28;20475;-82
2021/06/25 09:35:50;;;;;;;13.07;10.93;;;23.30;92.10;;;;;;5073576;28;21044;-83
2021/06/25 09:38:34;;;;;;;12.00;10.70;;;23.40;91.50;;;;;;5073722;28;20477;-86
2021/06/25 09:41:01;;;;;;;10.87;9.80;;;23.50;92.00;;;;;;5073981;28;21031;-82
2021/06/25 09:43:34;;;;;;;11.77;10.53;;;23.50;92.30;;;;;;5072147;28;20466;-83
2021/06/25 09:46:03;;;;;;;11.40;10.23;;;23.60;91.80;;;;;;5067453;28;20814;-82
2021/06/25 09:48:55;;;;;;;14.40;10.30;;;23.60;91.80;;;;;;5073540;28;21027;-83
2021/06/25 09:51:23;;;;;;;10.23;9.20;;;23.70;92.10;;;;;;5073747;28;20472;-82
2021/06/25 09:54:07;;;;;;;12.20;11.00;;;23.80;91.70;;;;;;5081124;28;20464;-83
2021/06/25 09:56:37;;;;;;;10.57;9.37;;;23.90;91.30;;;;;;5082479;28;20500;-83
2021/06/25 10:02:27;;;;;;;13.47;11.87;;;24.10;90.50;;;;;;5073714;28;20916;-82
2021/06/25 10:04:57;;;;;;;12.33;10.90;;;24.10;89.10;;;;;;5076455;28;20489;-82
2021/06/25 10:07:26;;;;;;;10.77;9.67;;;24.20;90.10;;;;;;5078305;28;20537;-82
2021/06/25 10:09:55;;;;;;;11.27;10.13;;;24.20;89.50;;;;;;5081332;28;20826;-82
2021/06/25 10:12:23;;;;;;;10.43;9.20;;;24.20;90.50;;;;;;5075236;28;20458;-82
2021/06/25 10:14:51;;;;;;;11.50;10.30;;;24.30;90.80;;;;;;5080407;28;20580;-82
2021/06/25 10:17:19;;;;;;;12.00;10.80;;;24.30;91.10;;;;;;5076103;28;20457;-82
2021/06/25 10:19:49;;;;;;;12.97;10.70;;;24.40;90.90;;;;;;5075842;28;20493;-82
2021/06/25 10:22:18;;;;;;;12.67;11.30;;;24.40;90.30;;;;;;5078087;28;20997;-82
2021/06/25 10:24:49;;;;;;;16.80;11.30;;;24.40;90.40;;;;;;5078518;28;20479;-82
2021/06/25 10:27:19;;;;;;;10.10;9.20;;;24.50;90.00;;;;;;5072507;28;20838;-82
2021/06/25 10:29:49;;;;;;;15.00;9.43;;;24.50;90.40;;;;;;5078035;28;20463;-82
2021/06/25 10:32:18;;;;;;;13.17;11.87;;;24.50;89.20;;;;;;5072864;28;20473;-82
2021/06/25 10:34:45;;;;;;;10.67;9.57;;;24.50;89.60;;;;;;5078445;28;20541;-83
2021/06/25 10:37:20;;;;;;;12.70;11.40;;;24.50;90.10;;;;;;5075698;28;20824;-82
2021/06/25 10:39:47;;;;;;;11.53;10.33;;;24.60;90.00;;;;;;5077939;28;20575;-82
2021/06/25 10:42:14;;;;;;;12.50;11.20;;;24.60;87.40;;;;;;5073526;28;20461;-82
2021/06/25 10:44:43;;;;;;;11.17;10.03;;;24.60;88.10;;;;;;5077788;28;20466;-81
2021/06/25 10:47:19;;;;;;;11.50;10.30;;;24.50;88.40;;;;;;5073450;28;20467;-82
2021/06/25 10:50:31;;;;;;;11.90;10.50;;;24.50;88.60;;;;;;5079795;28;20461;-82
2021/06/25 10:53:19;;;;;;;14.90;10.80;;;24.70;89.80;;;;;;5082792;28;20903;-82
2021/06/25 10:56:04;;;;;;;11.17;9.97;;;24.80;90.20;;;;;;5079213;28;20489;-82
2021/06/25 10:58:32;;;;;;;12.00;9.97;;;24.90;90.30;;;;;;5075743;28;20468;-82
2021/06/25 11:01:01;;;;;;;12.40;10.67;;;24.90;90.50;;;;;;5077150;28;20812;-82
2021/06/25 11:03:43;;;;;;;12.30;10.67;;;24.90;90.20;;;;;;5074589;28;20499;-81
2021/06/25 11:06:55;;;;;;;11.10;10.00;;;25.00;90.00;;;;;;5073212;28;20495;-82
2021/06/25 11:09:25;;;;;;;11.03;9.93;;;25.10;89.60;;;;;;5078241;28;20458;-82
2021/06/25 11:12:20;;;;;;;10.73;8.40;;;25.20;88.70;;;;;;5071070;28;20467;-81
2021/06/25 11:14:47;;;;;;;11.50;10.20;;;25.30;89.10;;;;;;5070937;28;20968;-82
2021/06/25 11:17:45;;;;;;;10.80;9.80;;;25.30;88.50;;;;;;5079076;28;20559;-82
2021/06/25 11:20:18;;;;;;;11.63;10.53;;;25.20;88.90;;;;;;5073273;28;20485;-82
2021/06/25 11:22:56;;;;;;;11.53;9.00;;;25.30;89.70;;;;;;5072063;28;20492;-82
2021/06/25 11:25:46;;;;;;;11.50;9.97;;;25.30;89.50;;;;;;5073569;28;20523;-81
2021/06/25 11:28:21;;;;;;;9.20;8.30;;;25.20;88.30;;;;;;5072792;28;20494;-82
2021/06/25 11:31:04;;;;;;;8.77;8.00;;;25.10;87.80;;;;;;5075752;28;20465;-82
2021/06/25 11:33:33;;;;;;;12.20;10.07;;;25.10;87.00;;;;;;5074562;28;20672;-82
2021/06/25 11:36:38;;;;;;;9.23;8.43;;;25.00;86.00;;;;;;5075695;28;20829;-82
2021/06/25 11:39:12;;;;;;;10.80;9.13;;;24.90;87.80;;;;;;4987275;28;20897;-82
2021/06/25 11:41:42;;;;;;;10.63;9.53;;;24.80;89.30;;;;;;5065814;28;20570;-82
2021/06/25 11:44:16;;;;;;;10.37;8.13;;;24.70;89.80;;;;;;5077619;28;20568;-82
2021/06/25 11:46:52;;;;;;;11.57;10.40;;;24.70;90.00;;;;;;5073588;28;20547;-82
2021/06/25 11:49:19;;;;;;;11.30;8.90;;;24.70;89.40;;;;;;5070490;28;20462;-82
2021/06/25 11:51:46;;;;;;;11.30;10.20;;;24.80;89.10;;;;;;5074602;28;20469;-81
2021/06/25 11:54:18;;;;;;;11.70;9.93;;;24.80;88.90;;;;;;5075612;28;20466;-82
2021/06/25 11:57:05;;;;;;;10.37;9.30;;;24.80;88.80;;;;;;5079823;28;20462;-82
2021/06/25 11:59:33;;;;;;;11.40;9.43;;;24.80;89.10;;;;;;5075379;28;20458;-82
2021/06/25 12:02:02;;;;;;;10.23;8.33;;;24.80;89.30;;;;;;5078339;28;20527;-83
2021/06/25 12:04:38;;;;;;;9.73;8.73;;;25.00;88.00;;;;;;5072208;28;21005;-84
2021/06/25 12:07:06;;;;;;;10.83;9.10;;;25.30;88.20;;;;;;5071651;28;20462;-85
2021/06/25 12:09:48;;;;;;;10.70;9.63;;;25.50;87.60;;;;;;5074636;28;20899;-82
2021/06/25 12:12:27;;;;;;;10.47;8.70;;;25.70;87.70;;;;;;5073539;28;20450;-82
2021/06/25 12:14:57;;;;;;;10.37;9.37;;;25.90;87.30;;;;;;5073273;28;20556;-82
2021/06/25 12:17:25;;;;;;;9.97;8.93;;;25.90;87.00;;;;;;5076417;28;20463;-82
2021/06/25 12:20:01;;;;;;;12.27;9.70;;;25.80;87.00;;;;;;5074532;28;20520;-83
2021/06/25 12:22:28;;;;;;;10.97;9.87;;;25.70;86.10;;;;;;5071584;28;20479;-82
2021/06/25 12:24:57;;;;;;;9.10;8.20;;;25.60;85.60;;;;;;5067990;28;20454;-82
2021/06/25 12:27:39;;;;;;;10.63;9.50;;;25.50;86.30;;;;;;5069682;28;20467;-82
2021/06/25 12:30:13;;;;;;;9.10;8.17;;;25.30;85.50;;;;;;5076072;28;20466;-82
2021/06/25 12:32:40;;;;;;;11.60;9.77;;;25.20;87.10;;;;;;5074585;28;20485;-82
2021/06/25 12:35:07;;;;;;;9.93;8.90;;;25.20;88.50;;;;;;5077892;28;20572;-82
2021/06/25 12:37:53;;;;;;;9.87;8.97;;;25.10;88.30;;;;;;5072960;28;20984;-82
2021/06/25 12:40:44;;;;;;;9.87;8.87;;;25.10;88.50;;;;;;5071493;28;20500;-82
2021/06/25 12:43:13;;;;;;;10.83;9.73;;;25.00;88.70;;;;;;5081678;28;20966;-82
2021/06/25 12:45:44;;;;;;;11.03;9.33;;;25.00;87.60;;;;;;5075339;28;20458;-82
2021/06/25 12:48:14;;;;;;;10.67;9.60;;;25.10;88.30;;;;;;5073682;28;20542;-82
2021/06/25 12:50:44;;;;;;;9.73;8.77;;;25.10;89.20;;;;;;5073060;28;20473;-83
2021/06/25 12:53:17;;;;;;;11.80;9.50;;;25.10;90.00;;;;;;5077029;28;20489;-82
2021/06/25 12:55:45;;;;;;;12.70;10.10;;;25.10;90.10;;;;;;5071365;28;20458;-82